Time;durP1;ratioP1;P1;durP2;ratioP2;P2;SDS_P1;SDS_P2;PMS_P1;PMS_P2;Temp;Humidity;BMP_temperature;BMP_pressure;BME280_temperature;BME280_humidity;BME280_pressure;Samples;Min_cycle;Max_cycle;Signal;HPM_P1;HPM_P2
2022/06/14 00:03:12;;;;;;;1.85;1.75;;;16.30;67.50;;;;;;5056381;28;20102;-81
2022/06/14 00:05:37;;;;;;;6.47;2.22;;;16.20;67.80;;;;;;5054689;28;20028;-81
2022/06/14 00:08:03;;;;;;;2.83;1.83;;;16.20;68.30;;;;;;5060035;28;20132;-82
2022/06/14 00:10:29;;;;;;;3.83;1.65;;;16.10;68.60;;;;;;5074786;28;20199;-81
2022/06/14 00:12:55;;;;;;;1.83;1.58;;;16.10;68.90;;;;;;5074816;28;20048;-82
2022/06/14 00:15:21;;;;;;;3.92;1.77;;;16.00;69.10;;;;;;5074670;28;20035;-81
2022/06/14 00:17:46;;;;;;;2.30;1.65;;;16.00;69.30;;;;;;5074250;28;20017;-83
2022/06/14 00:20:12;;;;;;;2.28;1.80;;;15.90;69.60;;;;;;5073779;28;20111;-83
2022/06/14 00:22:38;;;;;;;3.10;1.80;;;15.90;69.90;;;;;;5073848;28;20432;-84
2022/06/14 00:25:05;;;;;;;2.60;1.80;;;15.90;70.10;;;;;;5073621;28;20032;-81
2022/06/14 00:27:30;;;;;;;1.83;1.48;;;15.90;70.50;;;;;;5036543;28;20051;-83
2022/06/14 00:29:56;;;;;;;1.48;1.38;;;15.90;70.70;;;;;;5053692;28;20489;-81
2022/06/14 00:32:22;;;;;;;1.73;1.17;;;15.90;71.20;;;;;;5054560;28;20028;-81
2022/06/14 00:34:48;;;;;;;1.50;1.35;;;15.80;71.40;;;;;;5053426;28;20017;-81
2022/06/14 00:37:16;;;;;;;2.65;1.50;;;15.90;71.80;;;;;;5061279;28;20024;-81
2022/06/14 00:39:42;;;;;;;1.60;1.25;;;15.80;72.00;;;;;;5035926;28;20487;-81
2022/06/14 00:42:18;;;;;;;1.23;1.13;;;15.80;72.10;;;;;;5054387;28;20021;-81
2022/06/14 00:45:03;;;;;;;1.63;1.52;;;15.80;72.20;;;;;;5061035;28;20021;-81
2022/06/14 00:47:32;;;;;;;1.63;1.25;;;15.70;72.50;;;;;;5060664;28;20044;-83
2022/06/14 00:50:02;;;;;;;2.17;1.38;;;15.60;72.80;;;;;;5054122;28;20017;-81
2022/06/14 00:52:42;;;;;;;2.83;1.63;;;15.60;73.30;;;;;;5040729;28;20427;-84
2022/06/14 00:55:36;;;;;;;1.75;1.38;;;15.50;73.60;;;;;;5055598;28;20025;-83
2022/06/14 00:58:04;;;;;;;2.28;1.42;;;15.50;74.20;;;;;;5055405;28;20088;-82
2022/06/14 01:00:36;;;;;;;2.47;1.55;;;15.40;74.60;;;;;;5037212;28;20017;-83
2022/06/14 01:03:09;;;;;;;2.60;1.50;;;15.40;75.00;;;;;;5058609;28;20458;-82
2022/06/14 01:08:29;;;;;;;4.32;2.00;;;15.30;75.50;;;;;;5067542;22;20072;-78
2022/06/14 01:10:56;;;;;;;3.70;2.03;;;15.20;75.60;;;;;;5019488;28;20023;-80
2022/06/14 01:13:23;;;;;;;4.32;1.55;;;15.20;76.10;;;;;;5000528;28;20113;-79
2022/06/14 01:15:50;;;;;;;1.40;1.30;;;15.20;76.80;;;;;;4983036;28;20061;-81
2022/06/14 01:18:16;;;;;;;3.10;1.67;;;15.20;77.20;;;;;;4988346;28;20054;-79
2022/06/14 01:20:43;;;;;;;2.95;1.30;;;15.10;77.60;;;;;;5021086;28;20026;-80
2022/06/14 01:23:13;;;;;;;1.50;1.20;;;15.10;78.00;;;;;;5020778;28;20101;-78
2022/06/14 01:25:43;;;;;;;3.63;1.92;;;15.10;78.50;;;;;;5021555;28;20030;-80
2022/06/14 01:28:10;;;;;;;3.40;1.73;;;15.10;78.80;;;;;;5003951;28;20170;-79
2022/06/14 01:30:43;;;;;;;3.42;1.98;;;15.10;79.30;;;;;;5033373;28;20054;-81
2022/06/14 01:33:08;;;;;;;;;;;15.00;79.70;;;;;;5032023;28;20045;-79
2022/06/14 01:35:37;;;;;;;2.33;1.50;;;15.00;80.40;;;;;;5021553;28;19905;-78
2022/06/14 01:38:10;;;;;;;1.98;1.30;;;15.00;80.90;;;;;;5033585;28;20021;-80
2022/06/14 01:40:50;;;;;;;2.15;1.30;;;14.90;81.40;;;;;;5022584;28;20060;-79
2022/06/14 01:43:40;;;;;;;2.53;1.35;;;14.90;82.70;;;;;;5020394;28;20026;-81
2022/06/14 01:46:22;;;;;;;1.75;1.58;;;14.90;82.70;;;;;;5020701;28;20085;-80
2022/06/14 01:48:50;;;;;;;1.33;1.08;;;14.80;83.50;;;;;;5021173;28;20025;-80
2022/06/14 01:54:36;;;;;;;1.45;1.35;;;14.80;84.60;;;;;;5016152;28;20051;-79
2022/06/14 01:57:15;;;;;;;1.63;1.50;;;14.80;84.70;;;;;;5020230;28;20072;-80
2022/06/14 02:00:09;;;;;;;1.25;1.10;;;14.80;84.70;;;;;;5019713;28;20018;-81
2022/06/14 02:04:37;;;;;;;2.92;1.35;;;14.80;84.60;;;;;;4997118;28;20046;-78
2022/06/14 02:05:50;;;;;;;1.30;1.20;;;14.80;84.80;;;;;;5019922;28;20037;-79
2022/06/14 02:08:20;;;;;;;1.13;0.93;;;14.70;85.20;;;;;;5031891;28;20393;-79
2022/06/14 02:10:57;;;;;;;1.70;1.60;;;14.70;85.50;;;;;;5012588;28;20014;-77
2022/06/14 02:13:37;;;;;;;2.63;1.45;;;14.70;86.80;;;;;;5024126;28;20093;-78
2022/06/14 02:16:12;;;;;;;1.88;1.60;;;14.60;86.80;;;;;;5028139;28;20391;-78
2022/06/14 02:18:53;;;;;;;3.67;2.10;;;14.50;87.30;;;;;;5010142;28;20076;-78
2022/06/14 02:21:37;;;;;;;2.58;1.42;;;14.50;88.10;;;;;;5029182;28;20025;-79
2022/06/14 02:24:25;;;;;;;1.77;1.52;;;14.40;88.90;;;;;;5027582;28;20033;-77
2022/06/14 02:26:56;;;;;;;2.75;2.08;;;14.40;90.00;;;;;;5042617;28;20026;-77
2022/06/14 02:29:31;;;;;;;1.65;1.40;;;14.40;90.40;;;;;;5026722;28;20088;-78
2022/06/14 02:32:10;;;;;;;3.75;1.60;;;14.30;90.80;;;;;;5028518;28;20053;-77
2022/06/14 02:34:50;;;;;;;2.28;1.50;;;14.30;91.10;;;;;;5028365;28;20075;-78
2022/06/14 02:37:38;;;;;;;2.72;1.70;;;14.20;91.50;;;;;;5027033;28;20022;-78
2022/06/14 02:40:23;;;;;;;2.08;1.58;;;14.20;91.80;;;;;;5048430;28;20049;-80
2022/06/14 02:42:53;;;;;;;1.45;1.35;;;14.20;92.10;;;;;;5030701;28;20164;-79
2022/06/14 02:45:31;;;;;;;1.90;1.50;;;14.20;92.40;;;;;;5044529;28;20080;-78
2022/06/14 02:48:22;;;;;;;1.50;1.40;;;14.20;92.60;;;;;;5047105;28;20025;-79
2022/06/14 02:51:06;;;;;;;1.67;1.55;;;14.20;92.70;;;;;;5027865;28;20059;-78
2022/06/14 02:53:40;;;;;;;2.47;1.50;;;14.20;92.80;;;;;;5025059;28;20022;-79
2022/06/14 02:56:13;;;;;;;1.48;1.38;;;14.20;92.90;;;;;;5024042;28;20091;-80
2022/06/14 02:59:03;;;;;;;1.65;1.52;;;14.20;93.10;;;;;;5006391;28;20113;-79
2022/06/14 03:01:42;;;;;;;1.45;1.35;;;14.20;93.20;;;;;;5024181;28;20057;-79
2022/06/14 03:04:15;;;;;;;1.65;1.55;;;14.20;93.40;;;;;;5006377;28;20086;-78
2022/06/14 03:06:57;;;;;;;1.50;1.40;;;14.20;93.50;;;;;;5024618;28;20022;-79
2022/06/14 03:09:26;;;;;;;2.22;1.95;;;14.10;93.50;;;;;;5034103;28;20037;-77
2022/06/14 03:12:39;;;;;;;1.70;1.58;;;14.10;93.80;;;;;;5024372;28;20030;-79
2022/06/14 03:15:29;;;;;;;1.75;1.63;;;14.10;94.00;;;;;;4943296;28;20103;-79
2022/06/14 03:18:27;;;;;;;2.53;1.80;;;14.10;94.10;;;;;;5023255;28;20360;-81
2022/06/14 03:20:56;;;;;;;3.10;1.80;;;14.00;94.20;;;;;;5021627;28;20041;-80
2022/06/14 03:23:35;;;;;;;2.60;1.98;;;14.00;94.30;;;;;;5022415;28;20029;-78
2022/06/14 03:26:13;;;;;;;2.15;1.58;;;14.00;94.40;;;;;;5023073;28;20114;-80
2022/06/14 03:28:49;;;;;;;2.08;1.67;;;14.00;94.50;;;;;;5017757;28;20026;-81
2022/06/14 03:31:21;;;;;;;2.63;2.08;;;14.00;94.50;;;;;;5012710;28;20077;-79
2022/06/14 03:34:00;;;;;;;2.75;2.33;;;14.00;94.50;;;;;;5022995;28;20022;-79
2022/06/14 03:36:26;;;;;;;2.50;2.20;;;14.10;94.70;;;;;;5004607;28;20453;-81
2022/06/14 03:39:08;;;;;;;1.88;1.77;;;14.10;94.70;;;;;;5028370;28;20029;-81
2022/06/14 03:41:38;;;;;;;3.05;2.03;;;14.30;94.60;;;;;;5022994;28;20034;-81
2022/06/14 03:44:05;;;;;;;2.17;1.80;;;14.30;94.50;;;;;;5002287;28;20026;-79
2022/06/14 03:46:35;;;;;;;2.47;1.85;;;14.40;94.40;;;;;;5022095;28;20029;-79
2022/06/14 03:49:15;;;;;;;2.40;2.08;;;14.40;94.50;;;;;;5021637;28;20057;-78
2022/06/14 03:51:53;;;;;;;2.35;2.00;;;14.50;94.50;;;;;;5021495;28;20026;-79
2022/06/14 03:54:40;;;;;;;1.77;1.65;;;14.60;94.10;;;;;;5021496;28;20022;-79
2022/06/14 03:57:08;;;;;;;1.77;1.58;;;14.70;93.40;;;;;;5021149;28;20026;-78
2022/06/14 03:59:57;;;;;;;3.95;1.88;;;14.80;92.90;;;;;;5020269;28;20025;-79
2022/06/14 04:02:53;;;;;;;2.60;1.88;;;14.80;92.40;;;;;;5008768;28;20065;-78
2022/06/14 04:05:32;;;;;;;3.03;2.00;;;14.90;92.30;;;;;;5020015;28;20044;-78
2022/06/14 04:08:35;;;;;;;2.28;1.92;;;15.00;92.00;;;;;;5027071;28;20580;-78
2022/06/14 04:11:27;;;;;;;5.53;1.88;;;15.00;91.60;;;;;;4989341;28;20120;-80
2022/06/14 04:14:08;;;;;;;2.65;1.92;;;15.00;91.30;;;;;;5002733;28;20046;-81
2022/06/14 04:16:42;;;;;;;4.78;1.90;;;15.00;90.90;;;;;;5021976;28;20037;-79
2022/06/14 04:19:28;;;;;;;2.03;1.85;;;15.00;90.70;;;;;;5002858;28;20183;-82
2022/06/14 04:22:09;;;;;;;1.80;1.70;;;15.00;90.70;;;;;;4972990;28;20070;-83
2022/06/14 04:24:47;;;;;;;3.05;2.13;;;15.00;90.50;;;;;;5015739;28;20058;-83
2022/06/14 04:27:18;;;;;;;2.85;2.03;;;15.10;90.30;;;;;;5016019;28;20041;-83
2022/06/14 04:30:04;;;;;;;2.53;1.80;;;15.10;90.20;;;;;;4998706;28;20026;-83
2022/06/14 04:32:42;;;;;;;1.50;1.40;;;15.10;90.10;;;;;;5020838;28;20056;-81
2022/06/14 04:35:19;;;;;;;2.83;1.80;;;15.20;89.80;;;;;;5021003;28;20021;-81
2022/06/14 04:37:52;;;;;;;2.50;1.90;;;15.30;89.00;;;;;;5029791;28;20006;-82
2022/06/14 04:40:37;;;;;;;2.03;1.75;;;15.30;89.00;;;;;;5041846;28;20014;-81
2022/06/14 04:43:38;;;;;;;4.30;1.90;;;15.30;88.60;;;;;;5000492;28;20141;-81
2022/06/14 04:46:19;;;;;;;2.40;1.60;;;15.40;88.30;;;;;;4989510;28;20376;-80
2022/06/14 04:48:53;;;;;;;3.10;2.00;;;15.40;88.60;;;;;;5000665;28;20034;-80
2022/06/14 04:51:33;;;;;;;3.45;2.10;;;15.40;88.40;;;;;;4987257;28;20097;-80
2022/06/14 04:53:59;;;;;;;4.13;2.00;;;15.50;87.60;;;;;;5018871;28;20082;-81
2022/06/14 04:56:33;;;;;;;3.35;2.20;;;15.60;86.30;;;;;;5017169;28;20076;-80
2022/06/14 04:58:58;;;;;;;2.42;1.95;;;15.70;85.70;;;;;;5016765;28;20029;-80
2022/06/14 05:01:42;;;;;;;4.22;2.17;;;15.80;84.80;;;;;;5016933;28;20073;-79
2022/06/14 05:04:32;;;;;;;3.08;1.98;;;15.90;83.70;;;;;;5016230;28;20049;-83
2022/06/14 05:07:10;;;;;;;4.10;2.00;;;16.10;82.90;;;;;;5011708;28;20061;-82
2022/06/14 05:10:02;;;;;;;3.78;2.10;;;17.70;78.50;;;;;;5034836;28;20093;-80
2022/06/14 05:12:37;;;;;;;2.28;1.80;;;20.40;70.50;;;;;;5028438;28;20042;-79
2022/06/14 05:15:14;;;;;;;1.88;1.67;;;23.60;59.00;;;;;;5024145;28;20049;-79
2022/06/14 05:18:00;;;;;;;2.58;1.85;;;25.60;52.30;;;;;;5029022;28;20022;-80
2022/06/14 05:20:41;;;;;;;6.05;1.85;;;27.10;47.00;;;;;;5019233;28;20026;-80
2022/06/14 05:23:18;;;;;;;4.60;1.50;;;27.70;44.80;;;;;;5025477;28;20022;-80
2022/06/14 05:26:09;;;;;;;5.18;2.10;;;28.30;43.40;;;;;;5020573;28;20029;-80
2022/06/14 05:29:00;;;;;;;2.85;1.50;;;28.60;42.50;;;;;;5014580;28;20058;-80
2022/06/14 05:31:35;;;;;;;4.40;1.95;;;29.10;42.30;;;;;;5015248;28;20474;-78
2022/06/14 05:34:11;;;;;;;3.88;1.63;;;30.60;40.90;;;;;;5015358;28;20578;-80
2022/06/14 05:36:54;;;;;;;3.22;1.50;;;31.80;39.10;;;;;;5016978;28;20022;-80
2022/06/14 05:39:26;;;;;;;1.77;1.60;;;32.60;37.50;;;;;;5024336;28;20022;-79
2022/06/14 05:42:11;;;;;;;1.50;1.40;;;32.60;36.00;;;;;;5016522;28;20026;-80
2022/06/14 05:44:42;;;;;;;2.70;1.88;;;33.00;35.80;;;;;;5016625;28;20045;-78
2022/06/14 05:47:17;;;;;;;4.80;2.33;;;33.30;35.00;;;;;;5016426;28;20022;-79
2022/06/14 05:49:52;;;;;;;2.42;1.50;;;32.70;34.60;;;;;;5016908;28;20042;-80
2022/06/14 05:52:20;;;;;;;2.53;1.85;;;32.70;35.20;;;;;;5020300;28;20026;-78
2022/06/14 05:55:07;;;;;;;2.35;1.80;;;33.40;34.50;;;;;;5019987;28;20029;-78
2022/06/14 05:57:54;;;;;;;2.13;1.92;;;33.70;34.20;;;;;;5021356;28;20080;-81
2022/06/14 06:00:30;;;;;;;3.00;1.75;;;32.60;34.20;;;;;;5021965;28;20581;-80
2022/06/14 06:03:12;;;;;;;2.28;1.85;;;32.90;35.00;;;;;;5019878;28;20021;-80
2022/06/14 06:05:42;;;;;;;2.50;1.60;;;33.60;34.10;;;;;;5020046;28;20034;-80
2022/06/14 06:08:33;;;;;;;3.28;2.00;;;34.30;33.70;;;;;;5027583;28;20584;-81
2022/06/14 06:11:12;;;;;;;1.75;1.50;;;34.70;33.30;;;;;;4982367;28;20458;-80
2022/06/14 06:13:45;;;;;;;2.55;2.17;;;35.20;32.80;;;;;;5004192;28;20022;-79
2022/06/14 06:16:43;;;;;;;1.63;1.52;;;35.40;32.60;;;;;;5024068;28;20014;-80
2022/06/14 06:19:16;;;;;;;2.90;2.00;;;35.50;31.80;;;;;;5024774;28;20026;-78
2022/06/14 06:22:21;;;;;;;2.65;1.88;;;34.50;31.50;;;;;;5024283;28;20061;-81
2022/06/14 06:25:00;;;;;;;3.10;1.98;;;34.40;32.20;;;;;;5029924;28;20097;-80
2022/06/14 06:27:34;;;;;;;1.83;1.73;;;34.80;31.70;;;;;;5024311;28;20029;-77
2022/06/14 06:30:12;;;;;;;2.28;2.05;;;34.90;31.50;;;;;;5018776;28;20030;-77
2022/06/14 06:32:39;;;;;;;1.92;1.67;;;34.30;31.30;;;;;;5020804;28;20068;-80
2022/06/14 06:35:05;;;;;;;2.53;2.00;;;34.20;32.00;;;;;;5036362;28;20026;-77
2022/06/14 06:37:38;;;;;;;3.08;1.92;;;34.70;31.90;;;;;;5025032;28;20139;-78
2022/06/14 06:40:08;;;;;;;2.28;2.05;;;35.00;31.10;;;;;;5024719;28;20447;-79
2022/06/14 06:42:40;;;;;;;2.30;2.00;;;34.90;31.30;;;;;;5021735;28;20026;-80
2022/06/14 06:45:19;;;;;;;2.88;2.00;;;35.10;31.30;;;;;;5002933;28;20380;-79
2022/06/14 06:48:08;;;;;;;2.25;2.05;;;35.20;31.30;;;;;;5002125;28;20019;-80
2022/06/14 06:50:49;;;;;;;1.92;1.83;;;35.30;31.60;;;;;;5002338;28;20038;-80
2022/06/14 06:53:23;;;;;;;2.45;1.90;;;35.40;31.30;;;;;;5018881;28;20037;-79
2022/06/14 06:56:08;;;;;;;1.85;1.75;;;35.30;31.40;;;;;;5018801;28;20501;-80
2022/06/14 06:58:43;;;;;;;2.13;2.03;;;35.30;31.30;;;;;;5017368;28;20048;-80
2022/06/14 07:01:30;;;;;;;2.42;2.10;;;35.10;32.00;;;;;;5019782;28;20034;-78
2022/06/14 07:04:12;;;;;;;2.70;2.00;;;34.70;31.40;;;;;;5019461;28;20041;-80
2022/06/14 07:06:50;;;;;;;4.63;2.38;;;34.80;31.50;;;;;;5021013;28;20026;-76
2022/06/14 07:09:31;;;;;;;5.97;2.45;;;34.20;31.50;;;;;;5031088;28;20121;-78
2022/06/14 07:12:04;;;;;;;5.32;2.63;;;33.70;31.40;;;;;;5016460;28;20068;-77
2022/06/14 07:14:36;;;;;;;3.97;2.55;;;33.00;32.20;;;;;;5016614;28;20034;-76
2022/06/14 07:17:13;;;;;;;2.83;1.77;;;32.60;33.00;;;;;;5018592;28;20051;-78
2022/06/14 07:19:49;;;;;;;3.58;2.25;;;32.60;33.30;;;;;;5016186;28;20065;-78
2022/06/14 07:22:37;;;;;;;4.47;1.90;;;31.20;33.20;;;;;;5017840;28;20026;-78
2022/06/14 07:25:16;;;;;;;4.97;1.90;;;28.70;35.00;;;;;;5025659;28;20033;-79
2022/06/14 07:28:03;;;;;;;4.40;2.25;;;26.10;38.70;;;;;;5032699;28;20040;-77
2022/06/14 07:30:46;;;;;;;6.03;2.53;;;24.10;41.30;;;;;;5017122;28;20009;-78
2022/06/14 07:33:13;;;;;;;2.97;1.77;;;22.70;44.30;;;;;;5017330;28;20033;-78
2022/06/14 07:35:57;;;;;;;2.97;1.80;;;21.70;45.70;;;;;;5022354;28;20026;-79
2022/06/14 07:38:24;;;;;;;5.95;2.58;;;21.10;47.30;;;;;;5033814;28;20057;-80
2022/06/14 07:41:14;;;;;;;3.28;2.15;;;20.90;48.80;;;;;;5022882;28;20017;-79
2022/06/14 07:43:58;;;;;;;5.13;2.30;;;20.80;48.90;;;;;;5006528;28;20030;-80
2022/06/14 07:46:39;;;;;;;4.63;2.00;;;20.70;48.70;;;;;;5002870;28;20387;-79
2022/06/14 07:49:13;;;;;;;4.82;2.40;;;20.60;49.20;;;;;;5022942;28;20025;-79
2022/06/14 07:51:46;;;;;;;3.50;1.85;;;20.50;49.00;;;;;;5021442;28;20033;-80
2022/06/14 07:54:31;;;;;;;2.72;1.80;;;20.50;49.60;;;;;;5026004;28;20048;-81
2022/06/14 07:57:17;;;;;;;2.85;1.77;;;20.50;49.90;;;;;;5028360;28;20061;-77
2022/06/14 07:59:53;;;;;;;8.75;3.10;;;20.60;49.60;;;;;;5014367;28;20033;-79
2022/06/14 08:02:47;;;;;;;5.82;2.13;;;20.70;49.40;;;;;;5011228;28;20393;-78
2022/06/14 08:05:20;;;;;;;6.22;2.60;;;20.70;49.40;;;;;;5006869;28;20034;-80
2022/06/14 08:07:48;;;;;;;6.00;2.75;;;20.70;49.10;;;;;;5031904;28;20049;-78
2022/06/14 08:10:20;;;;;;;6.82;3.58;;;20.80;49.50;;;;;;5035633;28;20040;-77
2022/06/14 08:12:52;;;;;;;5.50;2.33;;;20.70;49.00;;;;;;5019302;28;20057;-77
2022/06/14 08:15:23;;;;;;;;;;;20.70;49.50;;;;;;5021675;28;20112;-78
2022/06/14 08:17:56;;;;;;;5.30;2.10;;;20.80;49.60;;;;;;5021097;28;20059;-80
2022/06/14 08:20:30;;;;;;;5.88;2.10;;;20.80;49.70;;;;;;5022033;28;20026;-81
2022/06/14 08:23:00;;;;;;;5.28;2.33;;;21.00;49.80;;;;;;5020996;28;20057;-79
2022/06/14 08:25:36;;;;;;;7.85;2.65;;;21.00;48.80;;;;;;5021919;28;20103;-79
2022/06/14 08:28:17;;;;;;;5.78;2.55;;;20.90;48.30;;;;;;5002021;28;20030;-79
2022/06/14 08:30:55;;;;;;;5.55;2.20;;;20.80;49.10;;;;;;5025161;28;20086;-80
2022/06/14 08:33:43;;;;;;;8.52;2.78;;;20.90;48.20;;;;;;5027130;28;20018;-79
2022/06/14 08:36:13;;;;;;;4.95;2.05;;;20.90;48.30;;;;;;5027341;28;20478;-80
2022/06/14 08:38:43;;;;;;;5.30;2.28;;;21.00;48.90;;;;;;5018287;28;20157;-79
2022/06/14 08:41:20;;;;;;;5.15;1.80;;;21.10;49.30;;;;;;5027830;28;20029;-82
2022/06/14 08:44:11;;;;;;;3.72;1.83;;;21.10;49.40;;;;;;5016236;28;20073;-80
2022/06/14 08:46:54;;;;;;;5.80;1.83;;;21.20;49.20;;;;;;5008794;28;20040;-81
2022/06/14 08:49:35;;;;;;;4.15;2.30;;;21.40;48.00;;;;;;5021273;28;20053;-78
2022/06/14 08:52:22;;;;;;;6.80;2.40;;;21.40;48.20;;;;;;5006070;28;20129;-80
2022/06/14 08:55:09;;;;;;;5.18;2.55;;;21.30;48.00;;;;;;5024804;28;20026;-81
2022/06/14 08:58:00;;;;;;;4.15;1.80;;;21.50;47.60;;;;;;5005143;28;20026;-78
2022/06/14 09:00:50;;;;;;;3.63;2.08;;;21.60;47.40;;;;;;5003763;28;20026;-81
2022/06/14 09:03:51;;;;;;;5.85;2.30;;;21.60;47.60;;;;;;5008870;28;20018;-82
2022/06/14 09:06:24;;;;;;;4.60;1.92;;;21.90;48.10;;;;;;5015303;28;20045;-85
2022/06/14 09:08:49;;;;;;;5.05;2.20;;;21.90;46.90;;;;;;5024137;28;20026;-81
2022/06/14 09:11:18;;;;;;;3.65;1.92;;;21.80;47.00;;;;;;5003967;28;20096;-79
2022/06/14 09:14:12;;;;;;;7.40;2.08;;;21.90;47.50;;;;;;5007983;28;20112;-83
2022/06/14 09:16:40;;;;;;;4.38;2.20;;;22.00;47.70;;;;;;5013170;28;20022;-82
2022/06/14 09:19:37;;;;;;;3.03;1.80;;;22.30;47.10;;;;;;5022130;28;20033;-80
2022/06/14 09:22:10;;;;;;;10.93;2.50;;;22.30;46.70;;;;;;5021406;28;20045;-79
2022/06/14 09:24:51;;;;;;;3.53;1.52;;;22.30;47.60;;;;;;5024840;28;20026;-80
2022/06/14 09:27:58;;;;;;;6.05;2.30;;;22.30;47.90;;;;;;5014786;28;20053;-79
2022/06/14 09:30:43;;;;;;;4.20;1.98;;;22.40;47.10;;;;;;5021154;28;20029;-81
2022/06/14 09:33:15;;;;;;;4.60;1.42;;;22.60;47.80;;;;;;5022894;28;20056;-79
2022/06/14 09:35:59;;;;;;;6.50;2.03;;;22.80;46.90;;;;;;5021106;28;20022;-83
2022/06/14 09:38:53;;;;;;;6.53;2.40;;;22.90;47.00;;;;;;5021241;28;20037;-78
2022/06/14 09:42:01;;;;;;;3.05;1.98;;;22.80;46.00;;;;;;4970136;28;20033;-80
2022/06/14 09:44:45;;;;;;;6.32;2.55;;;22.60;47.10;;;;;;4976571;28;20068;-80
2022/06/14 09:47:46;;;;;;;4.15;1.98;;;22.80;47.80;;;;;;5009514;28;20425;-80
2022/06/14 09:50:27;;;;;;;5.32;2.53;;;22.90;47.60;;;;;;5021354;28;20086;-82
2022/06/14 09:53:36;;;;;;;5.38;2.60;;;22.90;47.70;;;;;;5005743;28;20089;-81
2022/06/14 09:56:31;;;;;;;7.50;2.80;;;23.00;47.80;;;;;;5022736;28;20019;-81
2022/06/14 09:59:29;;;;;;;8.52;3.17;;;23.00;47.20;;;;;;5025085;28;20057;-80
2022/06/14 10:02:01;;;;;;;6.50;3.05;;;22.90;48.60;;;;;;5005426;28;20030;-80
2022/06/14 10:04:45;;;;;;;6.43;2.45;;;22.90;47.50;;;;;;5005759;28;20030;-80
2022/06/14 10:07:46;;;;;;;7.28;2.83;;;22.90;48.80;;;;;;5022456;28;20033;-81
2022/06/14 10:10:24;;;;;;;11.43;2.40;;;23.00;47.70;;;;;;4980006;28;20431;-79
2022/06/14 10:13:05;;;;;;;4.40;2.55;;;23.00;48.30;;;;;;5009972;28;20038;-79
2022/06/14 10:16:00;;;;;;;5.93;2.47;;;23.10;46.90;;;;;;5059104;28;20037;-79
2022/06/14 10:18:34;;;;;;;5.30;2.45;;;23.10;46.70;;;;;;4989194;28;20046;-80
2022/06/14 10:21:08;;;;;;;6.97;2.97;;;23.10;47.30;;;;;;4998128;28;20030;-80
2022/06/14 10:23:52;;;;;;;6.38;3.08;;;23.20;46.80;;;;;;5014529;28;20085;-81
2022/06/14 10:29:33;;;;;;;5.60;2.50;;;23.20;47.10;;;;;;5012952;28;20133;-80
2022/06/14 10:32:20;;;;;;;8.40;2.42;;;23.00;47.00;;;;;;5022082;28;20022;-82
2022/06/14 10:34:51;;;;;;;5.38;2.53;;;23.10;47.40;;;;;;5022607;28;20077;-80
2022/06/14 10:37:36;;;;;;;4.75;2.35;;;23.50;47.30;;;;;;5024547;28;20029;-80
2022/06/14 10:40:05;;;;;;;4.18;2.35;;;23.60;46.50;;;;;;5025250;28;20053;-82
2022/06/14 10:43:03;;;;;;;7.72;2.88;;;23.70;46.00;;;;;;5007013;28;20022;-81
2022/06/14 10:45:45;;;;;;;6.88;2.60;;;23.70;46.30;;;;;;5006835;28;20049;-82
2022/06/14 10:48:38;;;;;;;5.18;2.30;;;24.00;46.20;;;;;;5045126;28;20029;-80
2022/06/14 10:51:12;;;;;;;6.20;2.20;;;24.00;45.20;;;;;;5043979;28;20075;-81
2022/06/14 10:54:00;;;;;;;4.25;2.45;;;24.20;45.30;;;;;;5044764;28;20025;-80
2022/06/14 10:56:28;;;;;;;1.77;1.67;;;24.20;45.10;;;;;;5030462;28;20386;-80
2022/06/14 10:59:25;;;;;;;3.58;2.20;;;24.50;45.00;;;;;;5022432;28;20026;-81
2022/06/14 11:01:57;;;;;;;5.28;2.65;;;24.80;45.20;;;;;;5022464;28;20090;-80
2022/06/14 11:05:01;;;;;;;3.85;1.75;;;25.00;43.80;;;;;;5005746;28;20030;-82
2022/06/14 11:07:33;;;;;;;5.00;1.95;;;24.90;44.40;;;;;;5006441;28;20038;-83
2022/06/14 11:10:21;;;;;;;3.03;2.03;;;25.10;44.30;;;;;;5026318;28;20038;-81
2022/06/14 11:12:53;;;;;;;2.13;1.52;;;25.30;44.10;;;;;;5019562;28;20038;-81
2022/06/14 11:15:26;;;;;;;2.35;2.05;;;25.50;43.60;;;;;;5027719;28;20021;-82
2022/06/14 11:18:13;;;;;;;6.15;2.90;;;25.60;43.00;;;;;;5003412;28;20023;-82
2022/06/14 11:21:23;;;;;;;4.35;2.70;;;25.50;42.30;;;;;;4986583;28;20085;-81
2022/06/14 11:24:04;;;;;;;3.47;2.25;;;25.20;42.30;;;;;;4940080;29;20036;-81
2022/06/14 11:26:42;;;;;;;5.47;2.38;;;24.90;42.90;;;;;;4960196;28;20042;-80
2022/06/14 11:29:42;;;;;;;6.32;2.40;;;24.90;44.50;;;;;;5002788;28;20052;-82
2022/06/14 11:32:53;;;;;;;7.90;2.63;;;25.00;43.50;;;;;;5025304;28;20088;-82
2022/06/14 11:35:24;;;;;;;9.80;2.70;;;24.90;43.60;;;;;;4927278;29;20024;-81
2022/06/14 11:37:53;;;;;;;7.68;3.00;;;24.90;43.60;;;;;;5016068;28;20040;-82
2022/06/14 11:40:31;;;;;;;5.05;2.28;;;24.90;43.20;;;;;;5022773;28;20502;-79
2022/06/14 11:43:17;;;;;;;6.53;2.97;;;24.80;43.50;;;;;;5022403;28;20032;-81
2022/06/14 11:46:09;;;;;;;4.97;2.78;;;24.90;42.80;;;;;;5004716;28;20049;-81
2022/06/14 11:49:09;;;;;;;5.85;2.40;;;24.90;42.80;;;;;;5020112;28;20028;-80
2022/06/14 11:52:01;;;;;;;7.25;2.88;;;25.00;42.60;;;;;;4990155;28;20065;-80
2022/06/14 11:54:55;;;;;;;3.05;2.00;;;25.00;42.30;;;;;;5021579;28;20030;-80
2022/06/14 11:57:47;;;;;;;4.20;2.35;;;25.10;42.50;;;;;;5004903;28;20018;-81
2022/06/14 12:00:23;;;;;;;5.90;2.72;;;25.10;42.20;;;;;;4981117;28;20034;-82
2022/06/14 12:02:57;;;;;;;5.00;2.25;;;24.90;42.10;;;;;;5021523;28;20026;-82
2022/06/14 12:05:28;;;;;;;5.03;2.40;;;24.70;43.00;;;;;;5003448;28;20030;-80
2022/06/14 12:07:57;;;;;;;;;;;25.00;43.30;;;;;;5022132;28;20025;-79
2022/06/14 12:10:49;;;;;;;3.65;2.00;;;25.30;43.20;;;;;;5004975;28;19902;-79
2022/06/14 12:13:50;;;;;;;4.30;2.00;;;25.30;43.00;;;;;;5002780;28;20027;-79
2022/06/14 12:16:27;;;;;;;5.55;2.45;;;25.20;43.40;;;;;;5000803;28;20063;-81
2022/06/14 12:19:07;;;;;;;3.83;2.42;;;25.10;42.80;;;;;;5041279;28;20040;-81
2022/06/14 12:21:58;;;;;;;3.33;2.00;;;25.00;43.40;;;;;;5041809;28;20021;-79
2022/06/14 12:27:19;;;;;;;5.28;2.22;;;25.30;43.00;;;;;;5019479;28;20072;-81
2022/06/14 12:29:50;;;;;;;5.97;2.25;;;25.50;42.60;;;;;;5023456;28;20528;-79
2022/06/14 12:32:18;;;;;;;2.40;1.77;;;25.70;42.00;;;;;;5007423;28;20062;-81
2022/06/14 12:34:55;;;;;;;3.92;2.13;;;25.60;42.30;;;;;;5026287;28;20029;-79
2022/06/14 12:37:38;;;;;;;4.38;2.10;;;25.70;42.40;;;;;;5024448;28;20021;-80
2022/06/14 12:40:12;;;;;;;6.97;2.40;;;25.90;42.80;;;;;;5011874;28;20032;-81
2022/06/14 12:42:57;;;;;;;3.05;1.88;;;26.00;41.90;;;;;;5031828;28;20021;-79
2022/06/14 12:45:41;;;;;;;4.65;2.58;;;25.80;42.20;;;;;;5017460;28;20069;-79
2022/06/14 12:48:21;;;;;;;4.13;1.85;;;26.00;41.30;;;;;;5012676;28;20034;-80
2022/06/14 12:50:56;;;;;;;5.47;2.72;;;26.00;41.10;;;;;;5021449;28;20030;-80
2022/06/14 12:53:46;;;;;;;5.43;2.95;;;25.70;40.80;;;;;;5021901;28;20018;-81
2022/06/14 12:56:20;;;;;;;5.28;2.40;;;25.60;40.90;;;;;;5004680;28;20049;-79
2022/06/14 12:59:00;;;;;;;2.63;1.70;;;25.50;42.20;;;;;;5023201;28;20034;-81
2022/06/14 13:01:43;;;;;;;2.13;1.80;;;25.80;42.00;;;;;;5026703;28;20459;-80
2022/06/14 13:04:22;;;;;;;4.30;2.30;;;25.90;41.20;;;;;;5005429;28;20033;-79
2022/06/14 13:07:10;;;;;;;8.20;2.70;;;26.00;41.40;;;;;;5026004;28;20048;-80
2022/06/14 13:10:00;;;;;;;3.35;1.98;;;26.00;41.40;;;;;;5025922;28;20065;-81
2022/06/14 13:12:31;;;;;;;3.13;1.90;;;26.00;41.70;;;;;;5022476;28;20053;-80
2022/06/14 13:15:07;;;;;;;3.42;2.25;;;26.10;41.70;;;;;;5029600;28;20018;-79
2022/06/14 13:18:16;;;;;;;4.50;1.92;;;26.10;41.10;;;;;;5039978;28;20089;-80
2022/06/14 13:20:56;;;;;;;3.28;1.90;;;26.20;40.60;;;;;;5040232;28;20137;-80
2022/06/14 13:23:34;;;;;;;3.75;2.55;;;26.10;40.90;;;;;;5031649;28;20108;-81
2022/06/14 13:26:30;;;;;;;4.68;2.20;;;26.20;41.00;;;;;;5037300;28;20037;-81
2022/06/14 13:29:20;;;;;;;5.32;2.50;;;26.20;41.50;;;;;;5019802;28;20030;-81
2022/06/14 13:32:18;;;;;;;2.90;2.05;;;26.20;40.70;;;;;;5019083;28;20608;-79
2022/06/14 13:34:49;;;;;;;3.03;1.92;;;26.20;41.30;;;;;;4991409;28;20030;-81
2022/06/14 13:37:32;;;;;;;8.25;2.42;;;26.10;41.30;;;;;;5021845;28;20022;-79
2022/06/14 13:40:17;;;;;;;3.53;1.90;;;26.20;41.10;;;;;;5021105;28;20228;-81
2022/06/14 13:42:51;;;;;;;4.20;2.47;;;26.10;40.60;;;;;;5020432;28;20403;-81
2022/06/14 13:45:36;;;;;;;2.90;1.90;;;26.00;41.30;;;;;;5018667;28;20037;-81
2022/06/14 13:48:39;;;;;;;3.80;2.00;;;26.00;40.60;;;;;;5040369;28;20036;-80
2022/06/14 13:51:23;;;;;;;4.05;2.10;;;26.10;41.00;;;;;;5040850;28;20021;-81
2022/06/14 13:54:01;;;;;;;4.57;1.92;;;26.30;40.50;;;;;;5041159;28;20056;-78
2022/06/14 13:56:45;;;;;;;2.90;1.70;;;26.40;41.00;;;;;;5041811;28;20064;-81
2022/06/14 13:59:22;;;;;;;2.08;1.83;;;26.50;40.40;;;;;;5023805;28;20025;-81
2022/06/14 14:02:35;;;;;;;7.47;2.20;;;26.40;40.00;;;;;;5006518;28;20121;-79
2022/06/14 14:05:19;;;;;;;;;;;26.40;40.10;;;;;;4979867;28;20038;-80
2022/06/14 14:08:03;;;;;;;4.60;2.17;;;26.40;39.10;;;;;;4979154;28;19929;-81